WSSS

Singapore Changi International Airport

Singapore, Singapore
TAF WSSS 161100Z 1612/1718 02008KT 9999 SCT020 TEMPO 1708/1711 2000 TSRA FEW012CB BKN015
Issued Valid From Valid To
Feb-16 @ 11:00 UTC
(52 minutes ago)
Feb-16 @ 12:00 UTC
(in 8 minutes)
Feb-17 @ 18:00 UTC
(-1 days ago)
Feb-16 @ 12:00 to Feb-17 @ 18:00
TAF WSSS 161100Z 1612/1718 02008KT 9999 SCT020
Wind Visibility Clouds
20° at 8 knots 10,000+ meters
  • Scattered at 2,000' AGL
Temporary Feb-17 @ 08:00 to Feb-17 @ 11:00
TEMPO 1708/1711 2000 TSRA FEW012CB BKN015
Visibility Clouds Conditions
1,996 meters
  • Few at 1,200' AGL
  • Broken at 1,500' AGL
  • Thunderstorm
  • Rain
TAF WSSS 161100Z 1612/1718 02008KT 9999 SCT020 TEMPO 1708/1711 2000 TSRA FEW012CB BKN015
Issued Feb-16 @ 11:00 UTC
(52 minutes ago)
Valid From Feb-16 @ 12:00 UTC
(in 8 minutes)
Valid To Feb-17 @ 18:00 UTC
(-1 days ago)
Feb-16 @ 12:00 - Feb-17 @ 18:00
Wind Visibility
20° at 8 knots 10,000+ meters
Clouds
  • Scattered at 2,000' AGL
Temporary Feb-17 @ 08:00 - Feb-17 @ 11:00
Clouds
  • Few at 1,200' AGL
  • Broken at 1,500' AGL
Conditions
  • Thunderstorm
  • Rain